createdAt,value
2018-07-31T00:00:41.672Z,64.83
2018-07-31T00:01:41.668Z,64.79
2018-07-31T00:02:41.395Z,64.82
2018-07-31T00:03:41.568Z,64.78
2018-07-31T00:04:41.691Z,64.86
2018-07-31T00:05:41.734Z,64.78
2018-07-31T00:06:41.802Z,64.8
2018-07-31T00:07:41.664Z,64.85
2018-07-31T00:08:41.697Z,64.81
2018-07-31T00:09:41.634Z,64.84
2018-07-31T00:10:41.578Z,64.78
2018-07-31T00:11:41.414Z,64.77
2018-07-31T00:12:41.609Z,64.82
2018-07-31T00:13:41.782Z,64.77
2018-07-31T00:14:41.619Z,64.86
2018-07-31T00:15:41.612Z,64.79
2018-07-31T00:16:41.882Z,64.81
2018-07-31T00:17:41.594Z,64.77
2018-07-31T00:18:41.642Z,64.8
2018-07-31T00:19:41.444Z,64.8
2018-07-31T00:20:41.417Z,64.81
2018-07-31T00:21:41.621Z,64.79
2018-07-31T00:22:41.434Z,64.85
2018-07-31T00:23:41.642Z,64.8
2018-07-31T00:24:41.782Z,64.82
2018-07-31T00:25:41.621Z,64.86
2018-07-31T00:26:41.638Z,64.84
2018-07-31T00:27:41.541Z,64.83
2018-07-31T00:28:41.535Z,64.82
2018-07-31T00:29:41.455Z,64.87
2018-07-31T00:30:41.702Z,64.85
2018-07-31T00:31:41.855Z,64.82
2018-07-31T00:32:41.523Z,64.77
2018-07-31T00:33:41.428Z,64.83
2018-07-31T00:34:41.800Z,64.82
2018-07-31T00:35:41.628Z,64.83
2018-07-31T00:36:41.433Z,64.78
2018-07-31T00:37:41.706Z,64.85
2018-07-31T00:38:41.401Z,64.79
2018-07-31T00:39:41.566Z,64.81
2018-07-31T00:40:41.573Z,64.83
2018-07-31T00:41:41.561Z,64.81
2018-07-31T00:42:41.591Z,64.8
2018-07-31T00:43:41.660Z,64.84
2018-07-31T00:44:41.815Z,64.79
2018-07-31T00:45:41.594Z,64.84
2018-07-31T00:46:41.468Z,64.82
2018-07-31T00:47:41.408Z,64.83
2018-07-31T00:48:41.557Z,64.78
2018-07-31T00:49:41.909Z,64.84
2018-07-31T00:50:41.563Z,64.79
2018-07-31T00:51:41.557Z,64.85
2018-07-31T00:52:41.652Z,64.84
2018-07-31T00:53:41.865Z,64.82
2018-07-31T00:54:41.759Z,64.86
2018-07-31T00:55:41.517Z,64.8
2018-07-31T00:56:41.439Z,64.84
2018-07-31T00:57:41.658Z,64.78
2018-07-31T00:58:41.882Z,64.84
2018-07-31T00:59:41.697Z,64.8
2018-07-31T01:00:41.429Z,64.77
2018-07-31T01:01:41.493Z,64.85
2018-07-31T01:02:41.711Z,64.84
2018-07-31T01:03:41.592Z,64.86
2018-07-31T01:04:41.589Z,64.81
2018-07-31T01:05:41.400Z,64.84
2018-07-31T01:06:41.528Z,64.81
2018-07-31T01:07:41.591Z,64.83
2018-07-31T01:08:41.472Z,64.81
2018-07-31T01:09:41.536Z,64.8
2018-07-31T01:10:41.641Z,64.79
2018-07-31T01:11:41.562Z,64.81
2018-07-31T01:12:41.639Z,64.83
2018-07-31T01:13:41.577Z,64.86
2018-07-31T01:14:41.516Z,64.8
2018-07-31T01:15:41.540Z,64.82
2018-07-31T01:16:41.607Z,64.8
2018-07-31T01:17:41.576Z,64.81
2018-07-31T01:18:41.688Z,64.85
2018-07-31T01:19:41.617Z,64.84
2018-07-31T01:20:41.732Z,64.86
2018-07-31T01:21:41.578Z,64.83
2018-07-31T01:22:41.596Z,64.81
2018-07-31T01:23:41.396Z,64.81
2018-07-31T01:24:41.713Z,64.86
2018-07-31T01:25:41.627Z,64.84
2018-07-31T01:26:41.627Z,64.84
2018-07-31T01:27:41.569Z,64.82
2018-07-31T01:28:41.656Z,64.85
2018-07-31T01:29:41.471Z,64.85
2018-07-31T01:30:41.678Z,64.82
2018-07-31T01:31:41.689Z,64.88
2018-07-31T01:32:41.481Z,64.84
2018-07-31T01:33:41.439Z,64.82
2018-07-31T01:34:41.611Z,64.85
2018-07-31T01:35:41.473Z,64.85
2018-07-31T01:36:41.508Z,64.85
2018-07-31T01:37:41.463Z,64.82
2018-07-31T01:38:41.515Z,64.82
2018-07-31T01:39:41.502Z,64.82
2018-07-31T01:40:41.663Z,64.83
2018-07-31T01:41:41.415Z,64.84
2018-07-31T01:42:41.475Z,64.83
2018-07-31T01:43:41.613Z,64.86
2018-07-31T01:44:41.592Z,64.88
2018-07-31T01:45:41.923Z,64.83
2018-07-31T01:46:41.580Z,64.82
2018-07-31T01:47:41.568Z,64.86
2018-07-31T01:48:41.899Z,64.84
2018-07-31T01:49:41.720Z,64.85
2018-07-31T01:50:41.379Z,64.86
2018-07-31T01:51:41.428Z,64.84
2018-07-31T01:52:41.470Z,64.84
2018-07-31T01:53:41.464Z,64.84
2018-07-31T01:54:41.411Z,64.84
2018-07-31T01:55:41.489Z,64.81
2018-07-31T01:56:41.581Z,64.84
2018-07-31T01:57:41.604Z,64.81
2018-07-31T01:58:41.641Z,64.84
2018-07-31T01:59:42.203Z,64.82
2018-07-31T02:00:41.858Z,64.83
2018-07-31T02:01:41.604Z,64.84
2018-07-31T02:02:41.709Z,64.84
2018-07-31T02:03:41.546Z,64.86
2018-07-31T02:04:41.656Z,64.81
2018-07-31T02:05:41.606Z,64.86
2018-07-31T02:06:41.644Z,64.86
2018-07-31T02:07:41.514Z,64.85
2018-07-31T02:08:41.454Z,64.86
2018-07-31T02:09:41.591Z,64.85
2018-07-31T02:10:41.503Z,64.85
2018-07-31T02:11:41.546Z,64.87
2018-07-31T02:12:41.723Z,64.85
2018-07-31T02:13:41.691Z,64.86
2018-07-31T02:14:41.562Z,64.83
2018-07-31T02:15:41.740Z,64.8
2018-07-31T02:16:41.600Z,64.89
2018-07-31T02:17:41.520Z,64.8
2018-07-31T02:18:41.527Z,64.81
2018-07-31T02:19:41.548Z,64.84
2018-07-31T02:20:41.640Z,64.85
2018-07-31T02:21:41.620Z,64.81
2018-07-31T02:22:41.654Z,64.84
2018-07-31T02:23:41.470Z,64.83
2018-07-31T02:24:41.646Z,64.84
2018-07-31T02:25:41.475Z,64.84
2018-07-31T02:26:41.407Z,64.8
2018-07-31T02:27:41.630Z,64.85
2018-07-31T02:28:42.509Z,64.87
2018-07-31T02:29:41.654Z,64.86
2018-07-31T02:30:41.622Z,64.84
2018-07-31T02:31:41.519Z,64.84
2018-07-31T02:32:41.533Z,64.85
2018-07-31T02:33:41.464Z,64.82
2018-07-31T02:34:41.543Z,64.84
2018-07-31T02:35:41.371Z,64.84
2018-07-31T02:36:41.673Z,64.84
2018-07-31T02:37:41.650Z,64.87
2018-07-31T02:38:41.526Z,64.86
2018-07-31T02:39:41.799Z,64.84
2018-07-31T02:40:41.651Z,64.84
2018-07-31T02:41:41.470Z,64.82
2018-07-31T02:42:41.891Z,64.82
2018-07-31T02:43:41.487Z,64.86
2018-07-31T02:44:41.495Z,64.84
2018-07-31T02:45:41.664Z,64.82
2018-07-31T02:46:41.600Z,64.82
2018-07-31T02:47:41.895Z,64.86
2018-07-31T02:48:41.431Z,64.85
2018-07-31T02:49:41.449Z,64.81
2018-07-31T02:50:41.571Z,64.81
2018-07-31T02:51:41.466Z,64.82
2018-07-31T02:52:41.979Z,64.83
2018-07-31T02:53:41.433Z,64.84
2018-07-31T02:54:41.516Z,64.81
2018-07-31T02:55:41.638Z,64.82
2018-07-31T02:56:41.767Z,64.83
2018-07-31T02:57:41.890Z,64.82
2018-07-31T02:58:41.487Z,64.81
2018-07-31T02:59:41.562Z,64.79
2018-07-31T03:00:41.833Z,64.82
2018-07-31T03:01:41.872Z,64.81
2018-07-31T03:02:41.448Z,64.86
2018-07-31T03:03:41.820Z,64.82
2018-07-31T03:04:41.735Z,64.81
2018-07-31T03:05:41.591Z,64.83
2018-07-31T03:06:41.522Z,64.88
2018-07-31T03:07:41.602Z,64.84
2018-07-31T03:08:41.522Z,64.82
2018-07-31T03:09:41.739Z,64.81
2018-07-31T03:10:41.926Z,64.82
2018-07-31T03:11:41.394Z,64.81
2018-07-31T03:12:41.510Z,64.87
2018-07-31T03:13:41.481Z,64.8
2018-07-31T03:14:41.548Z,64.83
2018-07-31T03:15:41.625Z,64.83
2018-07-31T03:16:41.695Z,64.84
2018-07-31T03:17:41.791Z,64.84
2018-07-31T03:18:41.476Z,64.83
2018-07-31T03:19:41.579Z,64.81
2018-07-31T03:20:41.514Z,64.84
2018-07-31T03:21:41.580Z,64.79
2018-07-31T03:22:41.456Z,64.8
2018-07-31T03:23:41.617Z,64.83
2018-07-31T03:24:41.626Z,64.81
2018-07-31T03:25:41.654Z,64.8
2018-07-31T03:26:41.449Z,64.83
2018-07-31T03:27:41.414Z,64.79
2018-07-31T03:28:41.592Z,64.81
2018-07-31T03:29:41.309Z,64.8
2018-07-31T03:30:41.656Z,64.8
2018-07-31T03:31:41.619Z,64.8
2018-07-31T03:32:41.589Z,64.81
2018-07-31T03:33:41.685Z,64.79
2018-07-31T03:34:41.564Z,64.84
2018-07-31T03:35:41.581Z,64.81
2018-07-31T03:36:41.543Z,64.78
2018-07-31T03:37:41.636Z,64.84
2018-07-31T03:38:41.410Z,64.81
2018-07-31T03:39:41.479Z,64.78
2018-07-31T03:40:41.488Z,64.8
2018-07-31T03:41:41.428Z,64.81
2018-07-31T03:42:41.523Z,64.79
2018-07-31T03:43:41.538Z,64.79
2018-07-31T03:44:41.422Z,64.79
2018-07-31T03:45:41.470Z,64.81
2018-07-31T03:46:41.471Z,64.81
2018-07-31T03:47:41.354Z,64.78
2018-07-31T03:48:41.592Z,64.84
2018-07-31T03:49:41.585Z,64.8
2018-07-31T03:50:41.649Z,64.83
2018-07-31T03:51:41.703Z,64.77
2018-07-31T03:52:41.533Z,64.83
2018-07-31T03:53:41.426Z,64.82
2018-07-31T03:54:41.451Z,64.79
2018-07-31T03:55:41.502Z,64.82
2018-07-31T03:56:41.640Z,64.83
2018-07-31T03:57:41.924Z,64.81
2018-07-31T03:58:41.380Z,64.82
2018-07-31T03:59:41.544Z,64.83
2018-07-31T04:00:41.563Z,64.78
2018-07-31T04:01:41.614Z,64.77
2018-07-31T04:02:41.605Z,64.83
2018-07-31T04:03:41.568Z,64.77
2018-07-31T04:04:42.220Z,64.77
2018-07-31T04:05:41.492Z,64.76
2018-07-31T04:06:41.671Z,64.27
2018-07-31T04:07:41.418Z,61.86
2018-07-31T04:08:41.378Z,60.29
2018-07-31T04:09:41.560Z,59.99
2018-07-31T04:10:41.520Z,59.28
2018-07-31T04:11:41.451Z,59.25
2018-07-31T04:12:41.616Z,59.49
2018-07-31T04:13:41.621Z,59.26
2018-07-31T04:14:41.526Z,59.08
2018-07-31T04:15:41.534Z,59.14
2018-07-31T04:16:41.682Z,58.9
2018-07-31T04:17:41.487Z,59.17
2018-07-31T04:18:41.509Z,59.11
2018-07-31T04:19:41.797Z,58.84
2018-07-31T04:20:41.400Z,58.75
2018-07-31T04:21:41.616Z,58.79
2018-07-31T04:22:41.604Z,58.59
2018-07-31T04:23:41.635Z,58.89
2018-07-31T04:24:41.701Z,59.08
2018-07-31T04:25:41.721Z,58.72
2018-07-31T04:26:41.565Z,58.76
2018-07-31T04:27:41.604Z,58.6
2018-07-31T04:28:41.542Z,58.8
2018-07-31T04:29:41.382Z,58.56
2018-07-31T04:30:41.567Z,58.91
2018-07-31T04:31:41.553Z,58.85
2018-07-31T04:32:41.380Z,58.7
2018-07-31T04:33:41.478Z,58.78
2018-07-31T04:34:41.617Z,58.64
2018-07-31T04:35:41.562Z,58.62
2018-07-31T04:36:41.573Z,58.6
2018-07-31T04:37:41.651Z,58.68
2018-07-31T04:38:41.400Z,58.78
2018-07-31T04:39:41.553Z,58.46
2018-07-31T04:40:41.515Z,58.57
2018-07-31T04:41:41.546Z,58.64
2018-07-31T04:42:41.637Z,58.56
2018-07-31T04:43:41.647Z,58.56
2018-07-31T04:44:41.506Z,58.25
2018-07-31T04:45:41.595Z,58.46
2018-07-31T04:46:41.617Z,58.34
2018-07-31T04:47:41.388Z,58.12
2018-07-31T04:48:41.425Z,58.13
2018-07-31T04:49:41.565Z,58.17
2018-07-31T04:50:41.422Z,58.32
2018-07-31T04:51:41.378Z,58.43
2018-07-31T04:52:41.387Z,58.39
2018-07-31T04:53:41.548Z,58.39
2018-07-31T04:54:41.436Z,58.2
2018-07-31T04:55:41.590Z,58.11
2018-07-31T04:56:41.625Z,58.19
2018-07-31T04:57:41.533Z,58.07
2018-07-31T04:58:41.548Z,58.1
2018-07-31T04:59:41.557Z,58.21
2018-07-31T05:00:41.799Z,58.14
2018-07-31T05:01:41.663Z,58.04
2018-07-31T05:02:41.587Z,58.25
2018-07-31T05:03:41.678Z,57.98
2018-07-31T05:04:41.543Z,58.08
2018-07-31T05:05:41.354Z,58.22
2018-07-31T05:06:41.529Z,57.96
2018-07-31T05:07:41.839Z,58.08
2018-07-31T05:08:41.495Z,58.09
2018-07-31T05:09:41.634Z,57.86
2018-07-31T05:10:41.624Z,57.89
2018-07-31T05:11:41.376Z,58
2018-07-31T05:12:41.466Z,58.22
2018-07-31T05:13:41.524Z,58.29
2018-07-31T05:14:41.278Z,58.35
2018-07-31T05:15:41.476Z,58.36
2018-07-31T05:16:41.573Z,58.51
2018-07-31T05:17:41.897Z,58.27
2018-07-31T05:18:41.430Z,58.46
2018-07-31T05:19:41.593Z,58.64
2018-07-31T05:20:41.562Z,58.63
2018-07-31T05:21:41.535Z,58.75
2018-07-31T05:22:41.613Z,58.87
2018-07-31T05:23:41.616Z,58.99
2018-07-31T05:24:41.490Z,59.06
2018-07-31T05:25:41.610Z,59
2018-07-31T05:26:41.465Z,59.07
2018-07-31T05:27:41.760Z,59.12
2018-07-31T05:28:41.549Z,59.2
2018-07-31T05:29:41.537Z,59.31
2018-07-31T05:30:41.453Z,59.33
2018-07-31T05:31:41.615Z,59.4
2018-07-31T05:32:42.495Z,59.4
2018-07-31T05:33:41.540Z,59.43
2018-07-31T05:34:41.490Z,59.49
2018-07-31T05:35:41.530Z,59.49
2018-07-31T05:36:41.777Z,59.62
2018-07-31T05:37:41.582Z,59.58
2018-07-31T05:38:41.507Z,59.66
2018-07-31T05:39:41.575Z,59.69
2018-07-31T05:40:41.462Z,59.72
2018-07-31T05:41:41.361Z,59.76
2018-07-31T05:42:41.956Z,59.76
2018-07-31T05:43:41.632Z,59.81
2018-07-31T05:44:43.016Z,59.84
2018-07-31T05:45:41.602Z,59.88
2018-07-31T05:46:41.419Z,59.89
2018-07-31T05:47:41.561Z,59.97
2018-07-31T05:48:41.388Z,59.97
2018-07-31T05:49:41.536Z,60.05
2018-07-31T05:50:41.542Z,60.07
2018-07-31T05:51:41.581Z,60.12
2018-07-31T05:52:41.652Z,60.14
2018-07-31T05:53:41.534Z,60.21
2018-07-31T05:54:41.460Z,60.18
2018-07-31T05:55:41.571Z,60.22
2018-07-31T05:56:41.700Z,60.28
2018-07-31T05:57:41.699Z,60.3
2018-07-31T05:58:41.802Z,60.36
2018-07-31T05:59:41.406Z,60.32
2018-07-31T06:00:41.454Z,60.4
2018-07-31T06:01:41.488Z,60.42
2018-07-31T06:02:41.533Z,60.45
2018-07-31T06:03:41.660Z,60.5
2018-07-31T06:04:41.638Z,60.51
2018-07-31T06:05:41.470Z,60.56
2018-07-31T06:06:41.556Z,60.52
2018-07-31T06:07:41.498Z,60.58
2018-07-31T06:08:41.390Z,60.62
2018-07-31T06:09:42.351Z,60.61
2018-07-31T06:10:41.647Z,60.67
2018-07-31T06:11:41.370Z,60.67
2018-07-31T06:12:41.431Z,60.68
2018-07-31T06:13:41.392Z,60.74
2018-07-31T06:14:41.549Z,60.75
2018-07-31T06:15:41.417Z,60.8
2018-07-31T06:16:41.494Z,60.79
2018-07-31T06:17:41.349Z,60.82
2018-07-31T06:18:41.587Z,60.83
2018-07-31T06:19:41.489Z,60.83
2018-07-31T06:20:41.553Z,60.89
2018-07-31T06:21:41.531Z,60.89
2018-07-31T06:22:41.514Z,60.96
2018-07-31T06:23:41.371Z,60.95
2018-07-31T06:24:41.365Z,60.93
2018-07-31T06:25:42.634Z,60.98
2018-07-31T06:26:42.051Z,61.03
2018-07-31T06:27:41.421Z,60.98
2018-07-31T06:28:41.611Z,61.03
2018-07-31T06:29:41.510Z,61.01
2018-07-31T06:30:41.518Z,61.07
2018-07-31T06:31:41.336Z,61.06
2018-07-31T06:32:41.421Z,61.09
2018-07-31T06:33:41.544Z,61.08
2018-07-31T06:34:41.905Z,61.12
2018-07-31T06:35:41.519Z,61.15
2018-07-31T06:36:41.370Z,61.17
2018-07-31T06:37:41.689Z,61.16
2018-07-31T06:38:41.446Z,61.18
2018-07-31T06:39:41.400Z,61.22
2018-07-31T06:40:41.475Z,61.21
2018-07-31T06:41:41.528Z,61.22
2018-07-31T06:42:41.596Z,61.24
2018-07-31T06:43:41.616Z,61.26
2018-07-31T06:44:41.409Z,61.26
2018-07-31T06:45:41.395Z,61.28
2018-07-31T06:46:41.608Z,61.29
2018-07-31T06:47:41.567Z,61.31
2018-07-31T06:48:41.463Z,61.3
2018-07-31T06:49:41.667Z,61.33
2018-07-31T06:50:41.477Z,61.39
2018-07-31T06:51:41.552Z,61.36
2018-07-31T06:52:41.515Z,61.38
2018-07-31T06:53:41.530Z,61.38
2018-07-31T06:54:41.429Z,61.35
2018-07-31T06:55:41.926Z,61.39
2018-07-31T06:56:41.917Z,61.43
2018-07-31T06:57:41.446Z,61.45
2018-07-31T06:58:41.415Z,61.39
2018-07-31T06:59:42.517Z,61.48
2018-07-31T07:00:41.603Z,61.47
2018-07-31T07:01:41.408Z,61.45
2018-07-31T07:02:41.355Z,61.45
2018-07-31T07:03:41.357Z,61.47
2018-07-31T07:04:41.553Z,61.48
2018-07-31T07:05:41.647Z,61.51
2018-07-31T07:06:41.406Z,61.48
2018-07-31T07:07:41.477Z,61.49
2018-07-31T07:08:41.530Z,61.51
2018-07-31T07:09:41.471Z,61.5
2018-07-31T07:10:41.611Z,61.53
2018-07-31T07:11:41.611Z,61.54
2018-07-31T07:12:41.710Z,61.55
2018-07-31T07:13:41.663Z,61.54
2018-07-31T07:14:41.591Z,61.58
2018-07-31T07:15:41.596Z,61.58
2018-07-31T07:16:41.791Z,61.59
2018-07-31T07:17:41.378Z,61.58
2018-07-31T07:18:41.567Z,61.58
2018-07-31T07:19:41.478Z,61.61
2018-07-31T07:20:41.288Z,61.61
2018-07-31T07:21:41.530Z,61.6
2018-07-31T07:22:42.112Z,61.63
2018-07-31T07:23:41.522Z,61.62
2018-07-31T07:24:41.534Z,61.64
2018-07-31T07:25:41.481Z,61.66
2018-07-31T07:26:41.494Z,61.64
2018-07-31T07:27:41.401Z,61.68
2018-07-31T07:28:41.503Z,61.69
2018-07-31T07:29:41.310Z,61.67
2018-07-31T07:30:41.488Z,61.72
2018-07-31T07:31:41.729Z,61.71
2018-07-31T07:32:41.459Z,61.7
2018-07-31T07:33:42.434Z,61.73
2018-07-31T07:34:41.213Z,61.68
2018-07-31T07:35:41.350Z,61.75
2018-07-31T07:36:41.300Z,61.7
2018-07-31T07:37:41.612Z,61.74
2018-07-31T07:38:41.316Z,61.72
2018-07-31T07:39:41.497Z,61.73
2018-07-31T07:40:41.360Z,61.73
2018-07-31T07:41:41.403Z,61.79
2018-07-31T07:42:41.422Z,61.72
2018-07-31T07:43:41.656Z,61.79
2018-07-31T07:44:41.712Z,61.78
2018-07-31T07:45:41.629Z,61.75
2018-07-31T07:46:41.697Z,61.8
2018-07-31T07:47:41.506Z,61.79
2018-07-31T07:48:41.550Z,61.8
2018-07-31T07:49:41.381Z,61.81
2018-07-31T07:50:41.591Z,61.81
2018-07-31T07:51:41.410Z,61.83
2018-07-31T07:52:41.501Z,61.82
2018-07-31T07:53:41.639Z,61.84
2018-07-31T07:54:41.428Z,61.85
2018-07-31T07:55:41.596Z,61.82
2018-07-31T07:56:41.438Z,61.85
2018-07-31T07:57:41.632Z,61.89
2018-07-31T07:58:41.307Z,61.88
2018-07-31T07:59:41.575Z,61.86
2018-07-31T08:00:41.557Z,61.87
2018-07-31T08:01:41.359Z,61.88
2018-07-31T08:02:41.399Z,61.91
2018-07-31T08:03:42.330Z,61.86
2018-07-31T08:04:41.500Z,61.92
2018-07-31T08:05:41.827Z,61.92
2018-07-31T08:06:41.466Z,61.92
2018-07-31T08:07:41.365Z,61.91
2018-07-31T08:08:41.422Z,61.91
2018-07-31T08:09:42.112Z,61.94
2018-07-31T08:10:41.804Z,61.94
2018-07-31T08:11:41.438Z,61.95
2018-07-31T08:12:41.835Z,61.92
2018-07-31T08:13:41.370Z,61.95
2018-07-31T08:14:41.360Z,62.1
2018-07-31T08:15:41.460Z,62.15
2018-07-31T08:16:41.446Z,62.18
2018-07-31T08:17:41.595Z,62.17
2018-07-31T08:18:41.499Z,62.21
2018-07-31T08:19:41.367Z,62.19
2018-07-31T08:20:41.385Z,62.12
2018-07-31T08:21:41.490Z,62.11
2018-07-31T08:22:42.214Z,62.1
2018-07-31T08:23:41.675Z,62.18
2018-07-31T08:24:41.547Z,62.08
2018-07-31T08:25:41.336Z,62.03
2018-07-31T08:26:41.414Z,62.06
2018-07-31T08:27:42.028Z,62.05
2018-07-31T08:28:41.492Z,62.06
2018-07-31T08:29:41.432Z,61.99
2018-07-31T08:30:41.424Z,62.01
2018-07-31T08:31:41.700Z,61.96
2018-07-31T08:32:41.389Z,61.95
2018-07-31T08:33:41.495Z,61.93
2018-07-31T08:34:41.451Z,61.92
2018-07-31T08:35:41.497Z,61.85
2018-07-31T08:36:41.522Z,61.93
2018-07-31T08:37:41.556Z,61.88
2018-07-31T08:38:41.530Z,61.93
2018-07-31T08:39:41.322Z,61.89
2018-07-31T08:40:41.446Z,61.87
2018-07-31T08:41:41.466Z,61.87
2018-07-31T08:42:41.469Z,61.9
2018-07-31T08:43:41.542Z,61.89
2018-07-31T08:44:41.658Z,61.86
2018-07-31T08:45:41.327Z,61.9
2018-07-31T08:46:41.631Z,61.83
2018-07-31T08:47:41.488Z,61.8
2018-07-31T08:48:41.559Z,61.83
2018-07-31T08:49:41.527Z,61.86
2018-07-31T08:50:41.451Z,61.85
2018-07-31T08:51:41.542Z,61.78
2018-07-31T08:52:41.369Z,61.8
2018-07-31T08:53:41.513Z,61.78
2018-07-31T08:54:41.550Z,61.79
2018-07-31T08:55:42.054Z,61.96
2018-07-31T08:56:41.378Z,62.02
2018-07-31T08:57:41.894Z,61.99
2018-07-31T08:58:41.415Z,62.05
2018-07-31T08:59:41.664Z,62.04
2018-07-31T09:00:41.492Z,62.21
2018-07-31T09:01:41.565Z,62.22
2018-07-31T09:02:42.007Z,62.24
2018-07-31T09:03:41.271Z,62.28
2018-07-31T09:04:41.398Z,62.26
2018-07-31T09:05:41.621Z,62.24
2018-07-31T09:06:41.606Z,62.33
2018-07-31T09:07:41.512Z,62.27
2018-07-31T09:08:42.722Z,62.27
2018-07-31T09:09:41.648Z,62.28
2018-07-31T09:10:41.612Z,62.24
2018-07-31T09:11:41.682Z,62.24
2018-07-31T09:12:41.460Z,62.21
2018-07-31T09:13:41.552Z,62.25
2018-07-31T09:14:41.568Z,62.26
2018-07-31T09:15:41.480Z,62.23
2018-07-31T09:16:41.512Z,62.25
2018-07-31T09:17:41.852Z,62.2
2018-07-31T09:18:41.387Z,62.24
2018-07-31T09:19:41.475Z,62.21
2018-07-31T09:20:41.750Z,62.21
2018-07-31T09:21:41.283Z,62.25
2018-07-31T09:22:41.465Z,62.22
2018-07-31T09:23:41.463Z,62.24
2018-07-31T09:24:42.686Z,62.25
2018-07-31T09:25:41.665Z,62.2
2018-07-31T09:26:41.807Z,62.24
2018-07-31T09:27:41.653Z,62.23
2018-07-31T09:28:41.392Z,62.24
2018-07-31T09:29:41.519Z,62.19
2018-07-31T09:30:42.036Z,62.24
2018-07-31T09:31:41.622Z,62.19
2018-07-31T09:32:41.495Z,62.21
2018-07-31T09:33:41.475Z,62.21
2018-07-31T09:34:41.569Z,62.2
2018-07-31T09:35:41.406Z,62.18
2018-07-31T09:36:41.425Z,62.2
2018-07-31T09:37:41.583Z,62.2
2018-07-31T09:38:41.566Z,62.17
2018-07-31T09:39:41.285Z,62.19
2018-07-31T09:40:41.385Z,62.2
2018-07-31T09:41:41.464Z,62.18
2018-07-31T09:42:42.196Z,62.13
2018-07-31T09:43:41.443Z,62.18
2018-07-31T09:44:41.636Z,62.12
2018-07-31T09:45:41.490Z,62.17
2018-07-31T09:46:41.473Z,62.18
2018-07-31T09:47:41.570Z,62.13
2018-07-31T09:48:41.422Z,62.17
2018-07-31T09:49:41.583Z,62.13
2018-07-31T09:50:41.873Z,62.14
2018-07-31T09:51:41.345Z,62.14
2018-07-31T09:52:41.394Z,62.18
2018-07-31T09:53:41.355Z,62.15
2018-07-31T09:54:41.432Z,62.18
2018-07-31T09:55:41.520Z,62.22
2018-07-31T09:56:41.578Z,62.21
2018-07-31T09:57:41.331Z,62.2
2018-07-31T09:58:41.322Z,62.21
2018-07-31T09:59:41.311Z,62.21
2018-07-31T10:00:41.421Z,62.2
2018-07-31T10:01:41.433Z,62.27
2018-07-31T10:02:41.366Z,62.2
2018-07-31T10:03:41.450Z,62.24
2018-07-31T10:04:41.583Z,62.29
2018-07-31T10:05:41.435Z,62.23
2018-07-31T10:06:41.295Z,62.24
2018-07-31T10:07:41.407Z,62.27
2018-07-31T10:08:41.398Z,62.25
2018-07-31T10:09:41.592Z,62.27
2018-07-31T10:10:41.489Z,62.25
2018-07-31T10:11:41.850Z,62.24
2018-07-31T10:12:41.584Z,62.24
2018-07-31T10:13:41.438Z,62.28
2018-07-31T10:14:41.437Z,62.27
2018-07-31T10:15:41.333Z,62.27
2018-07-31T10:16:41.332Z,62.28
2018-07-31T10:17:42.062Z,62.25
2018-07-31T10:18:41.345Z,62.26
2018-07-31T10:19:41.408Z,62.27
2018-07-31T10:20:41.340Z,62.26
2018-07-31T10:21:41.559Z,62.3
2018-07-31T10:22:41.769Z,62.29
2018-07-31T10:23:41.426Z,62.28
2018-07-31T10:24:41.319Z,62.26
2018-07-31T10:25:41.525Z,62.3
2018-07-31T10:26:41.281Z,62.3
2018-07-31T10:27:41.430Z,62.29
2018-07-31T10:28:41.334Z,62.3
2018-07-31T10:29:41.355Z,62.31
2018-07-31T10:30:42.358Z,62.31
2018-07-31T10:31:41.600Z,62.3
2018-07-31T10:32:41.475Z,62.32
2018-07-31T10:33:41.548Z,62.3
2018-07-31T10:34:41.511Z,62.33
2018-07-31T10:35:41.405Z,62.32
2018-07-31T10:36:41.419Z,62.32
2018-07-31T10:37:41.983Z,62.31
2018-07-31T10:38:41.465Z,62.33
2018-07-31T10:39:41.254Z,62.34
2018-07-31T10:40:41.396Z,62.31
2018-07-31T10:41:41.434Z,62.34
2018-07-31T10:42:41.410Z,62.33
2018-07-31T10:43:42.026Z,62.33
2018-07-31T10:44:41.363Z,62.32
2018-07-31T10:45:41.614Z,62.33
2018-07-31T10:46:41.612Z,62.32
2018-07-31T10:47:41.343Z,62.33
2018-07-31T10:48:41.341Z,62.32
2018-07-31T10:49:41.462Z,62.36
2018-07-31T10:50:42.076Z,62.36
2018-07-31T10:51:41.472Z,62.37
2018-07-31T10:52:41.396Z,62.37
2018-07-31T10:53:41.308Z,62.39
2018-07-31T10:54:41.487Z,62.36
2018-07-31T10:55:41.493Z,62.37
2018-07-31T10:56:41.648Z,62.38
2018-07-31T10:57:41.385Z,62.37
2018-07-31T10:58:42.531Z,62.38
2018-07-31T10:59:42.491Z,62.36
2018-07-31T11:00:41.363Z,62.38
2018-07-31T11:01:41.387Z,62.36
2018-07-31T11:02:41.713Z,62.37
2018-07-31T11:03:41.561Z,62.39
2018-07-31T11:04:41.456Z,62.39
2018-07-31T11:05:41.460Z,62.41
2018-07-31T11:06:41.419Z,62.39
2018-07-31T11:07:41.458Z,62.39
2018-07-31T11:08:41.294Z,62.43
2018-07-31T11:09:41.593Z,62.41
2018-07-31T11:10:41.401Z,62.4
2018-07-31T11:11:41.298Z,62.42
2018-07-31T11:12:41.461Z,62.4
2018-07-31T11:13:41.358Z,62.42
2018-07-31T11:14:41.573Z,62.44
2018-07-31T11:15:41.294Z,62.41
2018-07-31T11:16:41.391Z,62.43
2018-07-31T11:17:41.325Z,62.43
2018-07-31T11:18:41.370Z,62.5
2018-07-31T11:19:41.549Z,62.42
2018-07-31T11:20:41.281Z,62.44
2018-07-31T11:21:41.453Z,62.45
2018-07-31T11:22:41.532Z,62.48
2018-07-31T11:23:41.267Z,62.48
2018-07-31T11:24:41.705Z,62.49
2018-07-31T11:25:41.468Z,62.51
2018-07-31T11:26:41.367Z,62.5
2018-07-31T11:27:41.578Z,62.47
2018-07-31T11:28:41.548Z,62.46
2018-07-31T11:29:41.786Z,62.45
2018-07-31T11:30:41.463Z,62.48
2018-07-31T11:31:41.436Z,62.46
2018-07-31T11:32:41.347Z,62.47
2018-07-31T11:33:41.444Z,62.47
2018-07-31T11:34:41.805Z,62.48
2018-07-31T11:35:41.394Z,62.46
2018-07-31T11:36:41.657Z,62.49
2018-07-31T11:37:41.495Z,62.45
2018-07-31T11:38:41.498Z,62.51
2018-07-31T11:39:41.415Z,62.53
2018-07-31T11:40:41.346Z,62.51
2018-07-31T11:41:41.328Z,62.49
2018-07-31T11:42:41.431Z,62.49
2018-07-31T11:43:41.611Z,62.52
2018-07-31T11:44:41.481Z,62.5
2018-07-31T11:45:41.440Z,62.5
2018-07-31T11:46:41.520Z,62.51
2018-07-31T11:47:41.510Z,62.55
2018-07-31T11:48:41.347Z,62.48
2018-07-31T11:49:41.846Z,62.51
2018-07-31T11:50:41.525Z,62.49
2018-07-31T11:51:42.002Z,62.48
2018-07-31T11:52:41.443Z,62.52
2018-07-31T11:53:41.536Z,62.5
2018-07-31T11:54:41.568Z,62.5
2018-07-31T11:55:41.680Z,62.53
2018-07-31T11:56:41.576Z,62.5
2018-07-31T11:57:41.504Z,62.48
2018-07-31T11:58:41.265Z,62.49
2018-07-31T11:59:41.459Z,62.48
2018-07-31T12:00:41.551Z,62.52
2018-07-31T12:01:41.738Z,62.54
2018-07-31T12:02:41.412Z,62.52
2018-07-31T12:03:41.432Z,62.49
2018-07-31T12:04:41.361Z,62.51
2018-07-31T12:05:41.654Z,62.49
2018-07-31T12:06:41.547Z,62.49
2018-07-31T12:07:41.206Z,62.53
2018-07-31T12:08:41.594Z,62.49
2018-07-31T12:09:41.633Z,62.51
2018-07-31T12:10:41.603Z,62.53
2018-07-31T12:11:41.564Z,62.51
2018-07-31T12:12:41.344Z,62.52
2018-07-31T12:13:41.464Z,62.54
2018-07-31T12:14:41.504Z,62.53
2018-07-31T12:15:41.317Z,62.49
2018-07-31T12:16:41.305Z,62.51
2018-07-31T12:17:41.480Z,62.53
2018-07-31T12:18:41.482Z,62.47
2018-07-31T12:19:41.521Z,62.54
2018-07-31T12:20:41.327Z,62.5
2018-07-31T12:21:41.500Z,62.51
2018-07-31T12:22:41.460Z,62.5
2018-07-31T12:23:41.669Z,62.52
2018-07-31T12:24:41.295Z,62.54
2018-07-31T12:25:41.315Z,62.53
2018-07-31T12:26:41.601Z,62.53
2018-07-31T12:27:41.464Z,62.53
2018-07-31T12:28:41.544Z,62.53
2018-07-31T12:29:41.281Z,62.56
2018-07-31T12:30:41.444Z,62.55
2018-07-31T12:31:41.423Z,62.51
2018-07-31T12:32:41.814Z,62.57
2018-07-31T12:33:41.381Z,62.54
2018-07-31T12:34:41.338Z,62.51
2018-07-31T12:35:41.341Z,62.56
2018-07-31T12:36:41.419Z,62.55
2018-07-31T12:37:41.428Z,62.53
2018-07-31T12:38:43.284Z,62.53
2018-07-31T12:39:41.345Z,62.57
2018-07-31T12:40:41.366Z,62.58
2018-07-31T12:41:41.372Z,62.54
2018-07-31T12:42:41.344Z,62.58
2018-07-31T12:43:41.289Z,62.54
2018-07-31T12:44:41.443Z,62.55
2018-07-31T12:45:41.257Z,62.56
2018-07-31T12:46:41.503Z,62.54
2018-07-31T12:47:41.562Z,62.56
2018-07-31T12:48:41.951Z,62.53
2018-07-31T12:49:41.410Z,62.56
2018-07-31T12:50:41.593Z,62.54
2018-07-31T12:51:41.624Z,62.53
2018-07-31T12:52:41.321Z,62.54
2018-07-31T12:53:41.410Z,62.53
2018-07-31T12:54:41.347Z,62.5
2018-07-31T12:55:41.344Z,62.56